首页
METAR-TAF:

METAR-TAF

机场 :

佩雷拉, 哥伦比亚

纬度: 04-49N, 经度: 075-44W, 海拔: 1342米

当前天气观测

该预报发布于19分钟前的01:00 UTC
风速2节,风向多变
温度 24°C
湿度 74%
气压 1017 hPa
能见度10公里或以上
散云层高于2000英尺

METAR: SKPE 250100Z VRB02KT 9999 SCT020 24/19 Q1017

时间: 20:19 (01:19 UTC)

预报

该预报发布于2小时和49分钟前的22:30 UTC
预报有效从25日的 00点(UTC)到 25日的 24点(UTC)
风速5节,风向西转西北
能见度10公里或以上
散云层高于2000英尺
散云层高于9000英尺
短暂存在
从 25日的 01点(UTC)到 25日的 03点(UTC)
散云层高于2000英尺, 塔状积云.
毛毛雨
短暂存在
从 25日的 20点(UTC)到 25日的 23点(UTC)
风速10节,风向西北
散云层高于2000英尺, 塔状积云.
毛毛雨,

TAF: SKPE 242230Z 2500/2524 29005KT 9999 SCT020 SCT090 TEMPO 2501/2503 DZ SCT020TCU TEMPO 2520/2523 32010KT DZ SCT020TCU TX28/2519Z TN21/2510Z

超过4000个机场的气象观测和天气预报(METAR&TAF报告)。

可查询的气象台以黄色和红色小点在地图上表示。

将鼠标移到小点上方,可查看气象台名称。

然后点击查看天气观测和预报。

如需切换地图:点击带黑十字的绿色按钮放大地图;点击带横线的绿色按钮缩小地图;或者点击绿色箭头查看邻近地区的地图。


METAR-TAF: